Time;durP1;ratioP1;P1;durP2;ratioP2;P2;SDS_P1;SDS_P2;PMS_P1;PMS_P2;Temp;Humidity;BMP_temperature;BMP_pressure;BME280_temperature;BME280_humidity;BME280_pressure;Samples;Min_cycle;Max_cycle;Signal;HPM_P1;HPM_P2
2021/11/25 00:00:47;;;;;;;;;;;20.50;37.40;;;;;;491866;240;997;-46
2021/11/25 00:02:48;;;;;;;;;;;20.50;37.40;;;;;;491618;240;1191;-45
2021/11/25 00:04:49;;;;;;;;;;;20.40;37.40;;;;;;491865;240;1007;-45
2021/11/25 00:06:51;;;;;;;;;;;20.40;37.30;;;;;;491631;240;1109;-45
2021/11/25 00:08:52;;;;;;;;;;;20.50;37.30;;;;;;491481;240;1027;-45
2021/11/25 00:10:53;;;;;;;;;;;20.50;37.30;;;;;;491478;240;1231;-45
2021/11/25 00:12:55;;;;;;;;;;;20.40;37.30;;;;;;491917;240;999;-45
2021/11/25 00:14:56;;;;;;;;;;;20.40;37.40;;;;;;491547;240;1030;-45
2021/11/25 00:16:57;;;;;;;;;;;20.50;37.40;;;;;;491633;240;2105;-45
2021/11/25 00:18:58;;;;;;;;;;;20.50;37.30;;;;;;491589;240;1056;-45
2021/11/25 00:21:00;;;;;;;;;;;20.40;37.30;;;;;;491571;240;1104;-45
2021/11/25 00:23:01;;;;;;;;;;;20.50;37.40;;;;;;491449;240;1197;-45
2021/11/25 00:25:02;;;;;;;;;;;20.40;37.30;;;;;;491597;240;1317;-45
2021/11/25 00:27:04;;;;;;;;;;;20.50;37.40;;;;;;491518;240;1249;-45
2021/11/25 00:29:05;;;;;;;;;;;20.40;37.40;;;;;;492023;240;1120;-45
2021/11/25 00:31:07;;;;;;;;;;;20.40;37.40;;;;;;491550;240;1117;-45
2021/11/25 00:33:08;;;;;;;;;;;20.50;37.40;;;;;;491575;240;1024;-45
2021/11/25 00:35:09;;;;;;;;;;;20.40;37.30;;;;;;491971;240;2191;-45
2021/11/25 00:37:10;;;;;;;;;;;20.50;37.30;;;;;;491617;240;1167;-45
2021/11/25 00:39:12;;;;;;;;;;;20.50;37.30;;;;;;491541;240;1595;-45
2021/11/25 00:41:13;;;;;;;;;;;20.40;37.30;;;;;;491533;240;1190;-45
2021/11/25 00:43:14;;;;;;;;;;;20.40;37.40;;;;;;491682;240;1246;-45
2021/11/25 00:45:16;;;;;;;;;;;20.40;37.30;;;;;;491534;240;1057;-45
2021/11/25 00:47:17;;;;;;;;;;;20.40;37.20;;;;;;491694;240;1468;-45
2021/11/25 00:49:18;;;;;;;;;;;20.50;37.30;;;;;;491661;240;1194;-45
2021/11/25 00:51:20;;;;;;;;;;;20.40;37.30;;;;;;491654;240;1339;-45
2021/11/25 00:53:21;;;;;;;;;;;20.40;37.30;;;;;;491895;240;1161;-45
2021/11/25 00:55:23;;;;;;;;;;;20.40;37.30;;;;;;491783;240;2188;-45
2021/11/25 00:57:24;;;;;;;;;;;20.40;37.30;;;;;;491556;240;1256;-45
2021/11/25 00:59:26;;;;;;;;;;;20.40;37.30;;;;;;491580;240;1100;-45
2021/11/25 01:01:27;;;;;;;;;;;20.40;37.40;;;;;;491512;240;1111;-45
2021/11/25 01:03:28;;;;;;;;;;;20.40;37.30;;;;;;491651;240;1212;-45
2021/11/25 01:05:30;;;;;;;;;;;20.50;37.30;;;;;;491562;240;1060;-45
2021/11/25 01:07:32;;;;;;;;;;;20.50;37.30;;;;;;491430;240;1666;-45
2021/11/25 01:09:33;;;;;;;;;;;20.40;37.30;;;;;;491821;240;1297;-46
2021/11/25 01:11:35;;;;;;;;;;;20.40;37.40;;;;;;491508;240;1178;-45
2021/11/25 01:13:36;;;;;;;;;;;20.40;37.40;;;;;;492014;240;1182;-45
2021/11/25 01:15:37;;;;;;;;;;;20.40;37.40;;;;;;491512;240;2180;-45
2021/11/25 01:17:39;;;;;;;;;;;20.40;37.40;;;;;;491554;240;1201;-45
2021/11/25 01:19:41;;;;;;;;;;;20.40;37.40;;;;;;491672;240;1022;-45
2021/11/25 01:21:42;;;;;;;;;;;20.30;37.40;;;;;;491727;240;1336;-46
2021/11/25 01:23:43;;;;;;;;;;;20.40;37.30;;;;;;491606;240;1068;-45
2021/11/25 01:25:44;;;;;;;;;;;20.40;37.30;;;;;;491467;240;1101;-45
2021/11/25 01:27:46;;;;;;;;;;;20.50;37.30;;;;;;491590;240;1166;-45
2021/11/25 01:29:47;;;;;;;;;;;20.50;37.30;;;;;;492036;240;1082;-45
2021/11/25 01:31:48;;;;;;;;;;;20.40;37.30;;;;;;491913;240;1198;-45
2021/11/25 01:33:50;;;;;;;;;;;20.40;37.30;;;;;;491737;240;1154;-45
2021/11/25 01:35:51;;;;;;;;;;;20.40;37.30;;;;;;491862;240;2121;-45
2021/11/25 01:37:52;;;;;;;;;;;20.50;37.30;;;;;;491499;240;1498;-45
2021/11/25 01:39:54;;;;;;;;;;;20.40;37.30;;;;;;491610;240;1018;-45
2021/11/25 01:41:55;;;;;;;;;;;20.40;37.30;;;;;;491587;240;1449;-45
2021/11/25 01:43:57;;;;;;;;;;;20.40;37.30;;;;;;491637;240;1071;-45
2021/11/25 01:45:58;;;;;;;;;;;20.40;37.40;;;;;;491788;240;1300;-45
2021/11/25 01:47:59;;;;;;;;;;;20.40;37.30;;;;;;491830;240;962;-45
2021/11/25 01:50:00;;;;;;;;;;;20.40;37.30;;;;;;491533;240;1267;-45
2021/11/25 01:52:02;;;;;;;;;;;20.40;37.30;;;;;;491536;240;1212;-45
2021/11/25 01:54:03;;;;;;;;;;;20.40;37.40;;;;;;491653;240;975;-45
2021/11/25 01:56:04;;;;;;;;;;;20.40;37.40;;;;;;491645;240;2180;-45
2021/11/25 01:58:06;;;;;;;;;;;20.40;37.40;;;;;;491639;240;1301;-45
2021/11/25 02:00:07;;;;;;;;;;;20.40;37.40;;;;;;491550;240;1056;-45
2021/11/25 02:02:08;;;;;;;;;;;20.30;37.40;;;;;;491457;240;1142;-45
2021/11/25 02:04:10;;;;;;;;;;;20.40;37.40;;;;;;491573;240;1345;-45
2021/11/25 02:06:13;;;;;;;;;;;20.40;37.40;;;;;;491723;240;1269;-44
2021/11/25 02:08:12;;;;;;;;;;;20.40;37.40;;;;;;491865;240;2106;-45
2021/11/25 02:10:14;;;;;;;;;;;20.40;37.30;;;;;;491669;240;1036;-45
2021/11/25 02:12:15;;;;;;;;;;;20.40;37.30;;;;;;491485;240;1255;-45
2021/11/25 02:14:16;;;;;;;;;;;20.50;37.30;;;;;;491705;240;1102;-45
2021/11/25 02:16:18;;;;;;;;;;;20.40;37.30;;;;;;491670;240;2189;-45
2021/11/25 02:18:19;;;;;;;;;;;20.40;37.30;;;;;;491620;240;1140;-45
2021/11/25 02:20:20;;;;;;;;;;;20.40;37.30;;;;;;491523;240;1134;-45
2021/11/25 02:22:22;;;;;;;;;;;20.40;37.30;;;;;;491451;240;1132;-45
2021/11/25 02:24:23;;;;;;;;;;;20.40;37.30;;;;;;491988;240;1277;-45
2021/11/25 02:26:24;;;;;;;;;;;20.40;37.30;;;;;;491496;240;1285;-45
2021/11/25 02:28:26;;;;;;;;;;;20.40;37.30;;;;;;491555;240;1049;-45
2021/11/25 02:30:27;;;;;;;;;;;20.40;37.20;;;;;;491543;240;1059;-45
2021/11/25 02:32:29;;;;;;;;;;;20.40;37.30;;;;;;491525;240;1064;-44
2021/11/25 02:34:30;;;;;;;;;;;20.40;37.30;;;;;;491955;240;1160;-45
2021/11/25 02:36:31;;;;;;;;;;;20.50;37.30;;;;;;491864;240;2204;-45
2021/11/25 02:38:33;;;;;;;;;;;20.40;37.20;;;;;;491503;240;1099;-45
2021/11/25 02:40:34;;;;;;;;;;;20.40;37.20;;;;;;491521;240;1219;-45
2021/11/25 02:42:35;;;;;;;;;;;20.40;37.30;;;;;;491515;240;1253;-46
2021/11/25 02:44:37;;;;;;;;;;;20.40;37.40;;;;;;491467;240;1097;-45
2021/11/25 02:46:38;;;;;;;;;;;20.30;37.30;;;;;;491774;240;1509;-45
2021/11/25 02:48:40;;;;;;;;;;;20.40;37.30;;;;;;491575;240;1057;-46
2021/11/25 02:50:41;;;;;;;;;;;20.40;37.30;;;;;;492061;240;1051;-45
2021/11/25 02:52:42;;;;;;;;;;;20.40;37.30;;;;;;491658;240;1171;-45
2021/11/25 02:54:44;;;;;;;;;;;20.30;37.30;;;;;;491861;240;1110;-45
2021/11/25 02:56:45;;;;;;;;;;;20.40;37.30;;;;;;491645;240;2177;-45
2021/11/25 02:58:46;;;;;;;;;;;20.40;37.30;;;;;;491622;240;1062;-45
2021/11/25 03:00:48;;;;;;;;;;;20.40;37.30;;;;;;491892;240;1301;-44
2021/11/25 03:02:49;;;;;;;;;;;20.40;37.30;;;;;;491623;240;1170;-45
2021/11/25 03:04:51;;;;;;;;;;;20.40;37.30;;;;;;491812;240;992;-45
2021/11/25 03:06:52;;;;;;;;;;;20.40;37.30;;;;;;491540;240;1586;-45
2021/11/25 03:08:53;;;;;;;;;;;20.40;37.30;;;;;;491876;240;1047;-45
2021/11/25 03:10:55;;;;;;;;;;;20.40;37.30;;;;;;491541;240;1246;-45
2021/11/25 03:12:56;;;;;;;;;;;20.40;37.30;;;;;;491577;240;1248;-45
2021/11/25 03:14:57;;;;;;;;;;;20.40;37.40;;;;;;491820;240;1056;-45
2021/11/25 03:16:58;;;;;;;;;;;20.40;37.40;;;;;;491376;240;2210;-45
2021/11/25 03:19:00;;;;;;;;;;;20.30;37.40;;;;;;492040;240;1036;-45
2021/11/25 03:21:01;;;;;;;;;;;20.40;37.30;;;;;;491633;240;1109;-45
2021/11/25 03:23:02;;;;;;;;;;;20.40;37.40;;;;;;491832;240;1227;-45
2021/11/25 03:25:04;;;;;;;;;;;20.30;37.30;;;;;;491589;240;1089;-45
2021/11/25 03:27:05;;;;;;;;;;;20.40;37.40;;;;;;491579;240;1481;-45
2021/11/25 03:29:06;;;;;;;;;;;20.40;37.30;;;;;;491705;240;1081;-46
2021/11/25 03:31:08;;;;;;;;;;;20.40;37.40;;;;;;491649;240;1132;-45
2021/11/25 03:33:09;;;;;;;;;;;20.40;37.30;;;;;;491713;240;1031;-45
2021/11/25 03:35:10;;;;;;;;;;;20.30;37.20;;;;;;491699;240;1220;-45
2021/11/25 03:37:12;;;;;;;;;;;20.30;37.30;;;;;;491532;240;2125;-45
2021/11/25 03:39:13;;;;;;;;;;;20.40;37.30;;;;;;491478;240;1055;-45
2021/11/25 03:41:14;;;;;;;;;;;20.30;37.30;;;;;;491438;240;1127;-45
2021/11/25 03:43:16;;;;;;;;;;;20.30;37.30;;;;;;491630;240;1209;-45
2021/11/25 03:45:17;;;;;;;;;;;20.40;37.30;;;;;;491803;240;1186;-45
2021/11/25 03:47:18;;;;;;;;;;;20.40;37.30;;;;;;491630;240;1315;-45
2021/11/25 03:49:20;;;;;;;;;;;20.40;37.30;;;;;;491714;240;1065;-45
2021/11/25 03:51:21;;;;;;;;;;;20.40;37.30;;;;;;491752;240;1584;-45
2021/11/25 03:53:22;;;;;;;;;;;20.40;37.40;;;;;;491539;240;1008;-45
2021/11/25 03:55:24;;;;;;;;;;;20.40;37.30;;;;;;491668;240;1083;-45
2021/11/25 03:57:25;;;;;;;;;;;20.40;37.30;;;;;;491513;240;2125;-45
2021/11/25 03:59:26;;;;;;;;;;;20.30;37.30;;;;;;491799;240;1089;-45
2021/11/25 04:01:28;;;;;;;;;;;20.30;37.30;;;;;;491557;240;1180;-45
2021/11/25 04:03:29;;;;;;;;;;;20.30;37.40;;;;;;491873;240;1031;-45
2021/11/25 04:05:30;;;;;;;;;;;20.30;37.30;;;;;;491561;240;1064;-45
2021/11/25 04:07:32;;;;;;;;;;;20.40;37.40;;;;;;491484;240;1220;-45
2021/11/25 04:09:33;;;;;;;;;;;20.40;37.40;;;;;;491622;240;1043;-45
2021/11/25 04:11:34;;;;;;;;;;;20.30;37.30;;;;;;491673;240;1143;-45
2021/11/25 04:13:36;;;;;;;;;;;20.40;37.40;;;;;;491548;240;1186;-45
2021/11/25 04:15:37;;;;;;;;;;;20.30;37.30;;;;;;491968;240;1056;-45
2021/11/25 04:17:39;;;;;;;;;;;20.30;37.30;;;;;;491491;240;2184;-45
2021/11/25 04:19:40;;;;;;;;;;;20.40;37.40;;;;;;491618;240;1016;-45
2021/11/25 04:21:42;;;;;;;;;;;20.30;37.30;;;;;;491534;240;1023;-45
2021/11/25 04:23:43;;;;;;;;;;;20.40;37.30;;;;;;491854;240;1070;-45
2021/11/25 04:25:44;;;;;;;;;;;20.40;37.30;;;;;;491573;240;1082;-45
2021/11/25 04:27:45;;;;;;;;;;;20.30;37.30;;;;;;491506;240;1668;-45
2021/11/25 04:29:51;;;;;;;;;;;20.30;37.40;;;;;;491555;240;1051;-45
2021/11/25 04:36:27;;;;;;;;;;;20.40;37.40;;;;;;491830;242;1044;-45
2021/11/25 04:38:28;;;;;;;;;;;20.40;37.30;;;;;;491766;240;2195;-45
2021/11/25 04:40:31;;;;;;;;;;;20.30;37.30;;;;;;491717;240;1031;-45
2021/11/25 04:42:31;;;;;;;;;;;20.30;37.40;;;;;;491467;240;2073;-45
2021/11/25 04:44:32;;;;;;;;;;;20.30;37.40;;;;;;492007;240;963;-45
2021/11/25 04:46:33;;;;;;;;;;;20.30;37.30;;;;;;491918;240;1061;-45
2021/11/25 04:48:35;;;;;;;;;;;20.40;37.30;;;;;;491533;240;1033;-45
2021/11/25 04:50:36;;;;;;;;;;;20.30;37.30;;;;;;491544;240;1028;-45
2021/11/25 04:52:37;;;;;;;;;;;20.30;37.30;;;;;;491923;240;1170;-45
2021/11/25 04:54:39;;;;;;;;;;;20.30;37.40;;;;;;491595;240;1233;-45
2021/11/25 04:56:40;;;;;;;;;;;20.30;37.30;;;;;;491617;240;2141;-45
2021/11/25 04:58:42;;;;;;;;;;;20.30;37.30;;;;;;491507;240;1274;-45
2021/11/25 05:00:43;;;;;;;;;;;20.30;37.30;;;;;;491838;240;1317;-45
2021/11/25 05:02:44;;;;;;;;;;;20.30;37.30;;;;;;491641;240;1667;-45
2021/11/25 05:04:45;;;;;;;;;;;20.30;37.20;;;;;;491838;240;1085;-45
2021/11/25 05:06:47;;;;;;;;;;;20.40;37.30;;;;;;491702;240;1241;-45
2021/11/25 05:08:48;;;;;;;;;;;20.40;37.30;;;;;;491704;240;1112;-45
2021/11/25 05:10:49;;;;;;;;;;;20.40;37.30;;;;;;491826;240;1239;-45
2021/11/25 05:12:51;;;;;;;;;;;20.40;37.30;;;;;;491494;240;1156;-45
2021/11/25 05:14:52;;;;;;;;;;;20.40;37.30;;;;;;491817;240;1092;-45
2021/11/25 05:16:54;;;;;;;;;;;20.30;37.20;;;;;;491877;240;2117;-45
2021/11/25 05:18:55;;;;;;;;;;;20.40;37.30;;;;;;491785;240;1201;-45
2021/11/25 05:20:56;;;;;;;;;;;20.40;37.30;;;;;;491833;240;1154;-45
2021/11/25 05:22:58;;;;;;;;;;;20.30;37.20;;;;;;491453;240;1231;-45
2021/11/25 05:24:59;;;;;;;;;;;20.40;37.30;;;;;;491491;240;1044;-45
2021/11/25 05:27:00;;;;;;;;;;;20.30;37.30;;;;;;491545;240;1376;-45
2021/11/25 05:29:01;;;;;;;;;;;20.30;37.30;;;;;;491356;240;1654;-45
2021/11/25 05:31:03;;;;;;;;;;;20.30;37.30;;;;;;491513;240;1403;-45
2021/11/25 05:33:04;;;;;;;;;;;20.30;37.30;;;;;;491775;240;1154;-45
2021/11/25 05:35:06;;;;;;;;;;;20.30;37.30;;;;;;491490;240;1144;-45
2021/11/25 05:37:07;;;;;;;;;;;20.30;37.30;;;;;;491343;240;2193;-45
2021/11/25 05:39:08;;;;;;;;;;;20.40;37.30;;;;;;491630;240;1225;-45
2021/11/25 05:41:10;;;;;;;;;;;20.40;37.30;;;;;;491546;240;1218;-45
2021/11/25 05:43:11;;;;;;;;;;;20.40;37.30;;;;;;491652;240;1222;-45
2021/11/25 05:45:12;;;;;;;;;;;20.30;37.30;;;;;;491914;240;1052;-45
2021/11/25 05:47:14;;;;;;;;;;;20.30;37.30;;;;;;491903;240;1258;-45
2021/11/25 05:49:15;;;;;;;;;;;20.40;37.20;;;;;;491443;240;1050;-45
2021/11/25 05:51:16;;;;;;;;;;;20.30;37.30;;;;;;491382;240;1136;-45
2021/11/25 05:53:20;;;;;;;;;;;20.30;37.30;;;;;;491407;240;1157;-44
2021/11/25 05:55:19;;;;;;;;;;;20.30;37.30;;;;;;491496;240;2067;-45
2021/11/25 05:57:21;;;;;;;;;;;20.30;37.30;;;;;;491651;240;2189;-45
2021/11/25 05:59:22;;;;;;;;;;;20.30;37.30;;;;;;491583;240;1238;-45
2021/11/25 06:01:24;;;;;;;;;;;20.30;37.30;;;;;;491599;240;1152;-45
2021/11/25 06:03:25;;;;;;;;;;;20.30;37.30;;;;;;491595;240;1107;-45
2021/11/25 06:05:27;;;;;;;;;;;20.30;37.30;;;;;;491383;240;1139;-45
2021/11/25 06:07:28;;;;;;;;;;;20.30;37.30;;;;;;491455;240;1352;-45
2021/11/25 06:09:29;;;;;;;;;;;20.30;37.30;;;;;;491494;240;1029;-45
2021/11/25 06:11:30;;;;;;;;;;;20.30;37.30;;;;;;491419;240;1469;-45
2021/11/25 06:13:32;;;;;;;;;;;20.30;37.30;;;;;;491305;240;1165;-46
2021/11/25 06:15:33;;;;;;;;;;;20.30;37.30;;;;;;491312;240;1208;-45
2021/11/25 06:17:34;;;;;;;;;;;20.30;37.30;;;;;;491258;240;2184;-45
2021/11/25 06:19:36;;;;;;;;;;;20.30;37.30;;;;;;491380;240;958;-45
2021/11/25 06:21:37;;;;;;;;;;;20.30;37.30;;;;;;491771;240;1137;-45
2021/11/25 06:23:40;;;;;;;;;;;20.30;37.30;;;;;;491542;240;1051;-45
2021/11/25 06:25:43;;;;;;;;;;;20.30;37.30;;;;;;491358;240;1757;-46
2021/11/25 06:27:42;;;;;;;;;;;20.40;37.30;;;;;;491545;240;2142;-45
2021/11/25 06:29:43;;;;;;;;;;;20.30;37.30;;;;;;491577;240;1191;-45
2021/11/25 06:31:44;;;;;;;;;;;20.30;37.40;;;;;;491265;240;1455;-45
2021/11/25 06:33:46;;;;;;;;;;;20.30;37.30;;;;;;491253;240;1042;-45
2021/11/25 06:35:47;;;;;;;;;;;20.30;37.30;;;;;;491687;240;1376;-45
2021/11/25 06:37:48;;;;;;;;;;;20.30;37.40;;;;;;491262;240;2195;-45
2021/11/25 06:39:50;;;;;;;;;;;20.20;37.40;;;;;;491368;240;1013;-45
2021/11/25 06:41:51;;;;;;;;;;;20.30;37.40;;;;;;490840;240;1266;-45
2021/11/25 06:43:52;;;;;;;;;;;20.30;37.40;;;;;;491400;240;1123;-45
2021/11/25 06:45:54;;;;;;;;;;;20.30;37.40;;;;;;491323;240;1317;-45
2021/11/25 06:47:55;;;;;;;;;;;20.30;37.50;;;;;;491319;240;1098;-45
2021/11/25 06:49:56;;;;;;;;;;;20.40;37.30;;;;;;491262;240;1097;-45
2021/11/25 06:51:58;;;;;;;;;;;20.50;36.90;;;;;;491166;240;1289;-45
2021/11/25 06:53:59;;;;;;;;;;;20.80;36.60;;;;;;491129;240;1100;-46
2021/11/25 06:56:00;;;;;;;;;;;20.90;36.20;;;;;;491136;240;1137;-45
2021/11/25 06:58:02;;;;;;;;;;;21.10;36.00;;;;;;491316;240;2133;-46
2021/11/25 07:00:04;;;;;;;;;;;21.10;35.80;;;;;;491310;240;1235;-45
2021/11/25 07:02:05;;;;;;;;;;;21.30;35.70;;;;;;490893;240;1946;-45
2021/11/25 07:04:06;;;;;;;;;;;21.30;35.50;;;;;;491215;240;1131;-45
2021/11/25 07:06:08;;;;;;;;;;;21.40;35.40;;;;;;491036;240;1239;-46
2021/11/25 07:08:09;;;;;;;;;;;21.40;35.30;;;;;;491167;240;1097;-46
2021/11/25 07:10:12;;;;;;;;;;;21.40;35.20;;;;;;491360;240;1449;-46
2021/11/25 07:12:12;;;;;;;;;;;21.50;35.20;;;;;;491143;240;2271;-46
2021/11/25 07:14:13;;;;;;;;;;;21.60;35.10;;;;;;491361;240;1178;-46
2021/11/25 07:16:14;;;;;;;;;;;21.60;34.90;;;;;;491383;240;1314;-45
2021/11/25 07:18:16;;;;;;;;;;;21.70;34.90;;;;;;491241;240;2148;-45
2021/11/25 07:20:17;;;;;;;;;;;21.70;34.70;;;;;;491204;240;1057;-46
2021/11/25 07:22:18;;;;;;;;;;;21.80;34.70;;;;;;491342;241;1298;-46
2021/11/25 07:24:20;;;;;;;;;;;21.80;34.60;;;;;;491375;240;1424;-46
2021/11/25 07:26:21;;;;;;;;;;;21.80;34.60;;;;;;491264;240;1268;-45
2021/11/25 07:28:22;;;;;;;;;;;21.90;34.50;;;;;;491122;240;1167;-45
2021/11/25 07:30:24;;;;;;;;;;;21.90;34.50;;;;;;491041;240;1181;-46
2021/11/25 07:32:25;;;;;;;;;;;21.90;34.40;;;;;;490925;241;1116;-46
2021/11/25 07:34:26;;;;;;;;;;;21.90;34.40;;;;;;491057;240;1177;-45
2021/11/25 07:36:28;;;;;;;;;;;22.00;34.40;;;;;;490845;241;1211;-46
2021/11/25 07:38:30;;;;;;;;;;;22.00;34.40;;;;;;490960;240;2196;-46
2021/11/25 07:40:30;;;;;;;;;;;22.00;34.30;;;;;;491031;240;2832;-46
2021/11/25 07:42:32;;;;;;;;;;;22.10;34.20;;;;;;491058;240;1442;-46
2021/11/25 07:44:33;;;;;;;;;;;22.10;34.00;;;;;;491068;240;1297;-45
2021/11/25 07:46:34;;;;;;;;;;;22.10;33.90;;;;;;491077;240;1191;-46
2021/11/25 07:48:36;;;;;;;;;;;22.10;33.80;;;;;;491038;240;1103;-46
2021/11/25 07:50:37;;;;;;;;;;;22.10;33.80;;;;;;490847;240;1117;-46
2021/11/25 07:52:39;;;;;;;;;;;22.20;33.90;;;;;;490944;240;1223;-46
2021/11/25 07:54:40;;;;;;;;;;;22.20;33.80;;;;;;490536;240;1954;-45
2021/11/25 07:56:41;;;;;;;;;;;22.20;33.80;;;;;;490992;240;1330;-46
2021/11/25 07:58:43;;;;;;;;;;;22.20;33.80;;;;;;491042;241;2188;-46
2021/11/25 08:00:44;;;;;;;;;;;22.20;33.80;;;;;;490990;240;1249;-46
2021/11/25 08:02:45;;;;;;;;;;;22.20;33.80;;;;;;490912;240;1191;-45
2021/11/25 08:04:47;;;;;;;;;;;22.30;33.80;;;;;;490941;240;1221;-46
2021/11/25 08:06:48;;;;;;;;;;;22.30;33.70;;;;;;490939;240;1234;-46
2021/11/25 08:08:49;;;;;;;;;;;22.30;33.70;;;;;;490814;240;1219;-45
2021/11/25 08:10:51;;;;;;;;;;;22.30;33.70;;;;;;490829;240;1293;-45
2021/11/25 08:12:54;;;;;;;;;;;22.30;33.70;;;;;;490977;240;1135;-46
2021/11/25 08:14:53;;;;;;;;;;;22.40;33.70;;;;;;490783;240;1696;-46
2021/11/25 08:16:58;;;;;;;;;;;22.40;33.60;;;;;;490847;240;1220;-46
2021/11/25 08:18:56;;;;;;;;;;;22.40;33.60;;;;;;490830;240;2391;-46
2021/11/25 08:20:57;;;;;;;;;;;22.50;33.50;;;;;;490792;240;1346;-45
2021/11/25 08:22:59;;;;;;;;;;;22.50;33.50;;;;;;490877;240;1295;-46
2021/11/25 08:25:02;;;;;;;;;;;22.50;33.40;;;;;;490566;240;1081;-46
2021/11/25 08:27:02;;;;;;;;;;;22.50;33.30;;;;;;490861;240;2048;-45
2021/11/25 08:29:03;;;;;;;;;;;22.60;33.40;;;;;;490661;240;1084;-46
2021/11/25 08:31:04;;;;;;;;;;;22.60;33.30;;;;;;490830;240;1284;-45
2021/11/25 08:33:06;;;;;;;;;;;22.60;33.30;;;;;;490707;240;1870;-46
2021/11/25 08:35:07;;;;;;;;;;;22.70;33.20;;;;;;490709;240;1147;-46
2021/11/25 08:37:08;;;;;;;;;;;22.70;33.20;;;;;;490647;240;1206;-46
2021/11/25 08:39:10;;;;;;;;;;;22.70;33.20;;;;;;490691;240;2180;-46
2021/11/25 08:41:11;;;;;;;;;;;22.70;33.20;;;;;;490653;240;1290;-45
2021/11/25 08:43:12;;;;;;;;;;;22.80;33.10;;;;;;490900;240;1245;-45
2021/11/25 08:45:14;;;;;;;;;;;22.80;33.20;;;;;;490895;240;1251;-46
2021/11/25 08:47:15;;;;;;;;;;;22.80;33.10;;;;;;490856;240;1203;-46
2021/11/25 08:49:16;;;;;;;;;;;22.80;33.10;;;;;;490669;240;1264;-46
2021/11/25 08:51:18;;;;;;;;;;;22.80;33.10;;;;;;490585;240;1179;-46
2021/11/25 08:53:22;;;;;;;;;;;22.90;33.10;;;;;;490811;240;1110;-46
2021/11/25 08:55:21;;;;;;;;;;;22.90;33.00;;;;;;490897;240;1994;-46
2021/11/25 08:57:22;;;;;;;;;;;22.90;33.00;;;;;;490933;240;1607;-46
2021/11/25 08:59:23;;;;;;;;;;;22.90;33.10;;;;;;490701;240;2184;-45
2021/11/25 09:01:25;;;;;;;;;;;22.90;33.00;;;;;;490692;240;1220;-46
2021/11/25 09:03:26;;;;;;;;;;;22.90;33.00;;;;;;490760;240;1108;-46
2021/11/25 09:05:28;;;;;;;;;;;22.90;33.00;;;;;;490888;240;1203;-45
2021/11/25 09:07:29;;;;;;;;;;;22.90;33.00;;;;;;490890;240;1186;-45
2021/11/25 09:09:30;;;;;;;;;;;23.00;33.00;;;;;;490775;240;1118;-45
2021/11/25 09:11:32;;;;;;;;;;;23.00;32.90;;;;;;490909;240;1185;-46
2021/11/25 09:13:33;;;;;;;;;;;23.00;32.90;;;;;;490997;240;1080;-46
2021/11/25 09:15:38;;;;;;;;;;;23.00;32.90;;;;;;490867;241;1260;-45
2021/11/25 09:17:36;;;;;;;;;;;23.00;32.90;;;;;;490800;240;1552;-46
2021/11/25 09:19:37;;;;;;;;;;;23.00;32.90;;;;;;490843;240;2180;-46
2021/11/25 09:21:38;;;;;;;;;;;23.00;32.90;;;;;;490923;240;1179;-46
2021/11/25 09:23:40;;;;;;;;;;;23.00;33.00;;;;;;491060;240;1068;-46
2021/11/25 09:25:42;;;;;;;;;;;23.00;33.00;;;;;;490643;240;1332;-46
2021/11/25 09:27:45;;;;;;;;;;;22.80;33.20;;;;;;490650;240;1267;-45
2021/11/25 09:29:44;;;;;;;;;;;22.50;33.60;;;;;;490789;240;2150;-45
2021/11/25 09:31:46;;;;;;;;;;;22.30;34.00;;;;;;490708;240;1226;-45
2021/11/25 09:33:47;;;;;;;;;;;22.20;34.20;;;;;;490776;240;1076;-47
2021/11/25 09:35:48;;;;;;;;;;;22.10;34.50;;;;;;490681;240;1296;-45
2021/11/25 09:37:51;;;;;;;;;;;21.90;34.60;;;;;;490395;240;1445;-46
2021/11/25 09:39:51;;;;;;;;;;;21.90;34.70;;;;;;490771;240;2184;-45
2021/11/25 09:41:53;;;;;;;;;;;21.80;34.90;;;;;;490716;240;1402;-45
2021/11/25 09:43:54;;;;;;;;;;;21.80;35.00;;;;;;490851;240;1176;-45
2021/11/25 09:45:55;;;;;;;;;;;21.70;35.10;;;;;;490632;241;1057;-45
2021/11/25 09:47:57;;;;;;;;;;;21.60;35.10;;;;;;490653;240;1211;-46
2021/11/25 09:49:58;;;;;;;;;;;21.60;35.20;;;;;;490716;240;1078;-45
2021/11/25 09:51:59;;;;;;;;;;;21.60;35.20;;;;;;490670;240;1292;-45
2021/11/25 09:54:01;;;;;;;;;;;21.60;35.20;;;;;;490685;240;1161;-46
2021/11/25 09:56:02;;;;;;;;;;;21.60;35.30;;;;;;490793;240;1300;-45
2021/11/25 09:58:03;;;;;;;;;;;21.50;35.30;;;;;;491606;240;1176;-45
2021/11/25 10:00:05;;;;;;;;;;;21.50;35.30;;;;;;490689;240;2175;-45
2021/11/25 10:02:06;;;;;;;;;;;21.50;35.30;;;;;;490836;240;1301;-45
2021/11/25 10:04:08;;;;;;;;;;;21.50;35.40;;;;;;491502;240;1049;-45
2021/11/25 10:06:09;;;;;;;;;;;21.50;35.40;;;;;;490650;240;1267;-46
2021/11/25 10:08:10;;;;;;;;;;;21.50;35.40;;;;;;490826;240;1083;-45
2021/11/25 10:10:12;;;;;;;;;;;21.50;35.40;;;;;;490856;240;1209;-45
2021/11/25 10:12:13;;;;;;;;;;;21.50;35.40;;;;;;491037;240;1217;-45
2021/11/25 10:14:15;;;;;;;;;;;21.40;35.40;;;;;;490725;240;1231;-45
2021/11/25 10:16:16;;;;;;;;;;;21.40;35.50;;;;;;490696;240;1725;-46
2021/11/25 10:18:17;;;;;;;;;;;21.50;35.50;;;;;;491010;240;1814;-45
2021/11/25 10:20:19;;;;;;;;;;;21.40;35.60;;;;;;491033;240;2196;-45
2021/11/25 10:22:20;;;;;;;;;;;21.40;35.50;;;;;;491547;240;1030;-44
2021/11/25 10:24:22;;;;;;;;;;;21.30;35.40;;;;;;491070;240;839;-45
2021/11/25 10:26:23;;;;;;;;;;;21.30;35.60;;;;;;491434;240;1178;-46
2021/11/25 10:28:24;;;;;;;;;;;21.30;35.60;;;;;;491447;240;1073;-45
2021/11/25 10:30:27;;;;;;;;;;;21.30;35.60;;;;;;490870;240;1130;-46
2021/11/25 10:32:27;;;;;;;;;;;21.40;35.60;;;;;;490663;240;1926;-45
2021/11/25 10:34:37;;;;;;;;;;;21.30;35.50;;;;;;490586;240;1114;-45
2021/11/25 10:38:59;;;;;;;;;;;21.40;35.60;;;;;;490131;241;2176;-45
2021/11/25 10:40:59;;;;;;;;;;;21.30;35.50;;;;;;491166;241;1886;-45
2021/11/25 10:43:00;;;;;;;;;;;21.40;35.60;;;;;;490661;240;1306;-45
2021/11/25 10:45:02;;;;;;;;;;;21.40;35.60;;;;;;491114;240;1103;-45
2021/11/25 10:47:05;;;;;;;;;;;21.40;35.90;;;;;;490825;240;1277;-45
2021/11/25 10:49:04;;;;;;;;;;;21.30;35.60;;;;;;490879;240;1944;-45
2021/11/25 10:51:06;;;;;;;;;;;21.30;35.60;;;;;;490409;240;1448;-45
2021/11/25 10:53:07;;;;;;;;;;;21.30;35.60;;;;;;490613;240;1461;-45
2021/11/25 10:55:08;;;;;;;;;;;21.30;35.60;;;;;;490744;240;1066;-45
2021/11/25 10:57:10;;;;;;;;;;;21.30;35.80;;;;;;490489;240;1289;-46
2021/11/25 10:59:13;;;;;;;;;;;21.30;35.70;;;;;;490746;240;2161;-45
2021/11/25 11:01:13;;;;;;;;;;;21.30;35.70;;;;;;490953;240;2049;-46
2021/11/25 11:03:14;;;;;;;;;;;21.30;35.70;;;;;;491001;240;1263;-45
2021/11/25 11:05:21;;;;;;;;;;;21.20;35.70;;;;;;490823;240;756;-45
2021/11/25 11:07:17;;;;;;;;;;;21.20;35.70;;;;;;491426;240;2128;-48
2021/11/25 11:09:18;;;;;;;;;;;21.20;35.70;;;;;;490773;240;1080;-46
2021/11/25 11:11:20;;;;;;;;;;;21.20;35.80;;;;;;490710;240;1473;-47
2021/11/25 11:13:33;;;;;;;;;;;21.20;35.70;;;;;;491267;241;1033;-47
2021/11/25 11:15:30;;;;;;;;;;;21.10;35.70;;;;;;490749;240;2070;-47
2021/11/25 11:17:31;;;;;;;;;;;21.20;35.70;;;;;;490691;240;1849;-47
2021/11/25 11:19:32;;;;;;;;;;;21.20;35.80;;;;;;490972;240;2283;-47
2021/11/25 11:21:33;;;;;;;;;;;21.10;35.80;;;;;;490870;240;1103;-47
2021/11/25 11:23:34;;;;;;;;;;;21.20;35.80;;;;;;491431;240;1031;-47
2021/11/25 11:25:36;;;;;;;;;;;21.20;35.80;;;;;;491032;240;1142;-47
2021/11/25 11:27:37;;;;;;;;;;;21.20;35.80;;;;;;490895;241;2118;-47
2021/11/25 11:29:39;;;;;;;;;;;21.10;35.90;;;;;;490824;240;1101;-47
2021/11/25 11:31:40;;;;;;;;;;;21.10;35.90;;;;;;490714;240;2052;-47
2021/11/25 11:33:41;;;;;;;;;;;21.10;35.90;;;;;;490783;240;1192;-47
2021/11/25 11:35:42;;;;;;;;;;;21.10;35.90;;;;;;490889;240;1366;-47
2021/11/25 11:37:44;;;;;;;;;;;21.00;35.80;;;;;;490801;240;1258;-47
2021/11/25 11:39:45;;;;;;;;;;;21.10;35.90;;;;;;490782;240;2188;-47
2021/11/25 11:41:46;;;;;;;;;;;21.00;35.90;;;;;;490855;240;1086;-47
2021/11/25 11:43:48;;;;;;;;;;;21.10;35.80;;;;;;490700;240;1099;-47
2021/11/25 11:45:49;;;;;;;;;;;21.10;35.90;;;;;;490842;240;1384;-47
2021/11/25 11:47:51;;;;;;;;;;;21.10;35.80;;;;;;490891;241;1238;-47
2021/11/25 11:49:52;;;;;;;;;;;21.00;35.80;;;;;;490976;240;1100;-47
2021/11/25 11:51:53;;;;;;;;;;;21.10;35.90;;;;;;490671;240;1400;-47
2021/11/25 11:53:56;;;;;;;;;;;21.00;35.80;;;;;;490680;241;1150;-47
2021/11/25 11:55:56;;;;;;;;;;;21.00;35.90;;;;;;490856;240;2419;-47
2021/11/25 11:57:57;;;;;;;;;;;21.00;35.90;;;;;;491180;240;1075;-47
2021/11/25 11:59:59;;;;;;;;;;;20.90;35.90;;;;;;490782;240;2192;-47
2021/11/25 12:02:00;;;;;;;;;;;21.00;35.80;;;;;;491089;240;1295;-47
2021/11/25 12:04:01;;;;;;;;;;;21.00;35.80;;;;;;490778;240;1141;-48